Crestview, FL

3:57 PM CST on January 30, 2015 (GMT -0600)
Sikes | Change Station
CLOSE
Current Station
Airport
Location: Crestview,
Elevation: 213 ft
Nearby Weather Stations

Elev 213 ft 30.78 °N, 86.52 °W | Updated 1 hour ago

Clear
Clear
61 °F
Feels Like 61 °F
N
12
Wind Variable Wind from NNE
Gusts 18 mph

Today
High -- | Low -- °F
--% Chance of Precip.
Yesterday
High -- | Low -- °F
Precip. -- in
6:38 AM 5:20 PM
Waxing Gibbous, 85% visible
Pressure 30.27 in
Visibility 10.0 miles
Clouds Clear
Dew Point 28 °F
Humidity 29%
Rainfall 0.00 in
Snow Depth Not available.
UV 3 out of 12
Pollen 6.70 out of 12
Air Quality Not available.
Flu Activity Not available.
METAR KCEW 302053Z AUTO 03010G16KT 10SM CLR 16/M02 A3028 RMK AO2 SLP251 T01611022 56018

More Conditions Fewer Conditions

Pressure 30.27 in
Visibility 10.0 miles
Clouds Clear
Dew Point 28 °F
Humidity 29%
Rainfall 0.00 in
Snow Depth Not available.
UV 3 out of 12
Pollen 6.70 out of 12
Air Quality Not available.
Flu Activity Not available.
METAR KCEW 302053Z AUTO 03010G16KT 10SM CLR 16/M02 A3028 RMK AO2 SLP251 T01611022 56018

More Conditions Fewer Conditions

10-Day Weather Forecast

Almanac

Astronomy

Jan. 30, 2015 Rise Set
Actual Time
Civil Twilight
Nautical Twilight
Astronomical Twilight
Moon
Length of Visible Light
Length of Day
Tomorrow will be .
, % of the Moon is Illuminated

Today's Extremes

State Highs State Lows

Community

WunderPhotos

Upload Photos

1,791,897 photos uploaded!

WunderBlogs® & News

Nearby

Air Quality

  Air Quality AQ Index Pollutant
Not available.

Snow Depth

Station Depth Elevation

Earthquake Activity

City Distance Mag. Time & Date
Minimum magnitude displayed is 2.5.

Coastal Water Temperatures

Place Temperature

Nearby Weather Stations